Time;durP1;ratioP1;P1;durP2;ratioP2;P2;SDS_P1;SDS_P2;PMS_P1;PMS_P2;Temp;Humidity;BMP_temperature;BMP_pressure;BME280_temperature;BME280_humidity;BME280_pressure;Samples;Min_cycle;Max_cycle;Signal;HPM_P1;HPM_P2
2022/08/29 00:01:10;;;;;;;13.32;3.10;;;;;;;23.54;59.96;99510.66;5049895;28;20147;-84
2022/08/29 00:03:36;;;;;;;6.68;3.60;;;;;;;23.11;60.21;99457.22;5067320;28;20041;-84
2022/08/29 00:06:02;;;;;;;6.78;3.40;;;;;;;22.97;60.10;99434.84;5067635;28;20636;-84
2022/08/29 00:08:28;;;;;;;8.65;3.45;;;;;;;22.85;59.83;99411.50;5049442;28;20056;-85
2022/08/29 00:10:54;;;;;;;5.70;3.42;;;;;;;22.99;60.44;99473.22;5067803;28;20081;-84
2022/08/29 00:13:20;;;;;;;5.20;3.40;;;;;;;22.76;60.82;99439.88;5067278;28;20032;-85
2022/08/29 00:15:46;;;;;;;7.63;4.22;;;;;;;23.05;61.12;99482.69;5067010;28;20040;-85
2022/08/29 00:18:14;;;;;;;6.22;2.85;;;;;;;23.17;60.91;99491.75;5067117;28;20036;-85
2022/08/29 00:20:40;;;;;;;7.00;2.60;;;;;;;23.34;60.58;99493.25;5067685;28;20078;-85
2022/08/29 00:23:08;;;;;;;4.50;3.08;;;;;;;22.96;60.37;99460.00;5066788;28;20040;-85
2022/08/29 00:25:34;;;;;;;7.25;3.45;;;;;;;22.76;60.55;99434.50;5066825;28;20040;-85
2022/08/29 00:28:00;;;;;;;10.55;4.22;;;;;;;22.97;59.63;99468.91;5048792;28;20044;-84
2022/08/29 00:30:26;;;;;;;10.32;3.28;;;;;;;22.92;60.42;99509.56;5066897;28;20119;-84
2022/08/29 00:32:51;;;;;;;12.85;4.57;;;;;;;22.70;60.63;99472.56;5067066;28;20483;-84
2022/08/29 00:35:29;;;;;;;9.68;4.22;;;;;;;22.77;60.44;99494.50;5048774;28;20036;-84
2022/08/29 00:37:55;;;;;;;6.90;2.75;;;;;;;22.59;58.42;99472.44;5048384;28;20032;-84
2022/08/29 00:40:28;;;;;;;5.28;2.63;;;;;;;22.58;57.30;99431.25;5067024;28;20024;-84
2022/08/29 00:42:54;;;;;;;5.95;3.42;;;;;;;22.66;56.73;99447.72;5066905;28;20482;-83
2022/08/29 00:45:19;;;;;;;5.00;2.85;;;;;;;22.93;58.28;99476.34;5066415;28;20085;-84
2022/08/29 00:48:07;;;;;;;6.72;3.38;;;;;;;22.70;57.54;99467.19;5067202;28;20033;-85
2022/08/29 00:50:43;;;;;;;8.57;2.88;;;;;;;22.60;58.09;99464.28;5066413;28;20032;-83
2022/08/29 00:53:15;;;;;;;6.72;3.53;;;;;;;22.99;57.68;99501.97;5048563;28;20114;-85
2022/08/29 00:55:44;;;;;;;5.13;3.38;;;;;;;22.98;57.64;99513.69;5066810;28;20035;-84
2022/08/29 00:58:30;;;;;;;8.18;3.67;;;;;;;22.71;57.62;99506.56;5048570;28;20517;-84
2022/08/29 01:00:57;;;;;;;13.70;3.53;;;;;;;22.76;57.81;99501.72;5066581;28;20102;-83
2022/08/29 01:03:23;;;;;;;8.70;3.08;;;;;;;22.73;56.84;99469.66;5066178;28;20552;-84
2022/08/29 01:05:49;;;;;;;5.68;3.10;;;;;;;22.90;56.46;99495.38;5066507;28;20032;-84
2022/08/29 01:08:15;;;;;;;5.68;3.15;;;;;;;22.68;56.29;99482.56;5066960;28;20145;-84
2022/08/29 01:13:30;;;;;;;5.03;3.22;;;;;;;22.89;56.07;99515.16;5066959;28;20051;-84
2022/08/29 01:15:57;;;;;;;10.25;3.70;;;;;;;22.77;56.47;99478.38;5066011;28;20506;-86
2022/08/29 01:18:29;;;;;;;6.45;3.47;;;;;;;22.78;57.12;99499.75;5066237;28;20143;-86
2022/08/29 01:20:58;;;;;;;7.65;3.50;;;;;;;23.02;57.30;99521.44;5049360;28;20442;-84
2022/08/29 01:23:49;;;;;;;7.07;4.40;;;;;;;22.86;56.93;99472.34;5066499;28;20503;-84
2022/08/29 01:26:15;;;;;;;5.47;3.78;;;;;;;22.82;56.62;99439.44;5027631;28;20044;-85
2022/08/29 01:28:44;;;;;;;6.82;3.40;;;;;;;23.03;57.13;99468.47;5048528;28;20038;-84
2022/08/29 01:31:14;;;;;;;13.80;5.03;;;;;;;22.78;57.27;99445.16;5066806;28;20032;-84
2022/08/29 01:34:10;;;;;;;7.55;3.30;;;;;;;22.91;57.66;99453.19;5066753;28;20060;-84
2022/08/29 01:36:59;;;;;;;6.28;3.65;;;;;;;23.09;58.25;99488.75;5047027;28;20049;-84
2022/08/29 01:39:27;;;;;;;10.40;4.30;;;;;;;22.99;58.00;99448.16;5066197;28;20033;-84
2022/08/29 01:41:53;;;;;;;6.93;3.83;;;;;;;23.10;57.80;99475.19;5066596;28;20806;-84
2022/08/29 01:44:21;;;;;;;6.28;3.55;;;;;;;23.01;58.19;99470.44;5066367;28;20029;-84
2022/08/29 01:46:49;;;;;;;8.85;3.85;;;;;;;23.03;58.68;99498.94;5065529;28;20781;-84
2022/08/29 01:49:17;;;;;;;6.10;4.05;;;;;;;22.86;58.82;99450.84;5066264;28;20035;-87
2022/08/29 01:51:45;;;;;;;9.30;3.67;;;;;;;23.11;59.54;99497.56;5066104;28;20044;-84
2022/08/29 01:54:11;;;;;;;11.80;4.10;;;;;;;22.82;59.12;99476.25;5065902;28;20035;-84
2022/08/29 01:56:40;;;;;;;7.32;4.22;;;;;;;22.77;59.85;99481.94;5065534;28;20110;-84
2022/08/29 01:59:09;;;;;;;9.07;4.90;;;;;;;22.27;59.88;99430.63;5066313;28;20093;-86
2022/08/29 02:01:38;;;;;;;8.57;3.47;;;;;;;22.05;60.38;99447.34;5047771;28;20040;-84
2022/08/29 02:04:06;;;;;;;7.22;3.83;;;;;;;21.81;61.19;99433.69;5047290;28;20049;-84
2022/08/29 02:06:32;;;;;;;6.28;3.25;;;;;;;22.05;61.73;99471.50;5065171;28;20044;-84
2022/08/29 02:08:57;;;;;;;5.72;3.40;;;;;;;22.02;61.68;99458.28;5065881;28;20036;-83
2022/08/29 02:11:27;;;;;;;6.72;3.78;;;;;;;22.09;61.46;99481.09;5051425;28;20032;-86
2022/08/29 02:13:56;;;;;;;12.13;4.32;;;;;;;21.81;61.97;99479.34;5049109;28;20036;-86
2022/08/29 02:16:24;;;;;;;5.97;3.03;;;;;;;22.07;62.21;99550.13;5069347;28;20028;-84
2022/08/29 02:18:50;;;;;;;4.85;3.20;;;;;;;21.69;62.17;99489.06;5052349;28;20043;-83
2022/08/29 02:21:21;;;;;;;4.20;3.08;;;;;;;21.83;61.40;99496.22;5069452;28;20425;-84
2022/08/29 02:23:48;;;;;;;8.00;3.78;;;;;;;21.65;61.35;99479.47;5037869;28;20445;-84
2022/08/29 02:26:16;;;;;;;5.03;3.53;;;;;;;21.39;61.37;99470.38;5069113;28;20094;-84
2022/08/29 02:28:42;;;;;;;9.80;3.33;;;;;;;21.86;61.59;99511.25;5069762;28;20120;-85
2022/08/29 02:31:08;;;;;;;8.23;3.38;;;;;;;22.15;61.15;99558.56;5070267;28;20524;-85
2022/08/29 02:33:35;;;;;;;5.97;3.75;;;;;;;21.69;61.05;99480.13;5069539;28;20510;-85
2022/08/29 02:36:01;;;;;;;6.28;4.30;;;;;;;21.74;60.45;99473.50;5069216;28;20036;-84
2022/08/29 02:38:27;;;;;;;16.80;4.35;;;;;;;21.81;60.55;99492.75;5069362;28;20086;-83
2022/08/29 02:40:53;;;;;;;6.60;3.65;;;;;;;21.90;61.17;99521.69;5069231;28;20082;-85
2022/08/29 02:43:20;;;;;;;5.38;3.60;;;;;;;21.75;60.99;99507.47;5069559;28;20016;-85
2022/08/29 02:45:46;;;;;;;10.18;3.67;;;;;;;21.93;61.13;99510.75;5068821;28;20032;-84
2022/08/29 02:48:13;;;;;;;10.30;4.82;;;;;;;21.70;61.29;99490.75;5069068;28;20166;-88
2022/08/29 02:50:44;;;;;;;5.93;3.35;;;;;;;21.81;62.07;99495.44;5068615;28;20123;-86
2022/08/29 02:53:12;;;;;;;7.75;3.70;;;;;;;21.74;62.23;99478.03;5069218;28;20167;-86
2022/08/29 02:55:38;;;;;;;11.00;4.15;;;;;;;21.70;62.20;99473.81;5068686;28;20506;-85
2022/08/29 02:58:04;;;;;;;10.15;4.25;;;;;;;21.79;62.30;99514.34;5068417;28;20061;-85
2022/08/29 03:00:31;;;;;;;11.52;4.82;;;;;;;21.87;62.16;99489.66;5068568;28;20029;-85
2022/08/29 03:02:57;;;;;;;6.10;3.92;;;;;;;21.78;62.18;99514.44;5068359;28;20426;-86
2022/08/29 03:05:26;;;;;;;8.45;3.88;;;;;;;21.68;62.33;99460.50;5068090;28;20059;-84
2022/08/29 03:07:53;;;;;;;6.60;3.97;;;;;;;21.63;62.82;99494.81;5068936;28;20032;-85
2022/08/29 03:10:19;;;;;;;6.50;3.63;;;;;;;21.85;63.37;99526.50;5068574;28;20491;-85
2022/08/29 03:12:44;;;;;;;6.65;4.53;;;;;;;21.74;63.37;99499.50;5068353;28;20037;-84
2022/08/29 03:15:10;;;;;;;8.30;4.22;;;;;;;21.76;63.63;99514.53;5068719;28;20837;-84
2022/08/29 03:17:36;;;;;;;7.18;3.28;;;;;;;21.54;63.92;99482.84;5065608;28;20036;-87
2022/08/29 03:20:03;;;;;;;7.70;4.03;;;;;;;21.65;64.08;99530.47;5068143;28;20051;-85
2022/08/29 03:22:28;;;;;;;6.25;3.75;;;;;;;21.51;64.05;99535.84;5068401;28;20033;-85
2022/08/29 03:24:54;;;;;;;8.88;3.95;;;;;;;21.43;63.83;99526.44;5068743;28;20516;-84
2022/08/29 03:27:21;;;;;;;4.40;3.13;;;;;;;21.40;63.61;99504.31;5063077;28;20037;-85
2022/08/29 03:29:47;;;;;;;4.95;3.17;;;;;;;21.63;63.87;99544.00;5068463;28;20028;-86
2022/08/29 03:32:13;;;;;;;6.32;4.15;;;;;;;21.37;64.42;99523.28;5068359;28;20521;-86
2022/08/29 03:34:39;;;;;;;8.20;4.45;;;;;;;21.39;64.59;99497.19;5066481;28;20060;-84
2022/08/29 03:37:04;;;;;;;6.43;3.75;;;;;;;21.33;64.97;99492.22;5066220;28;20041;-85
2022/08/29 03:39:30;;;;;;;6.22;4.07;;;;;;;21.32;66.08;99514.63;5083377;28;20036;-86
2022/08/29 03:41:56;;;;;;;10.02;3.50;;;;;;;21.58;65.52;99527.31;5048521;28;20029;-86
2022/08/29 03:44:22;;;;;;;6.13;3.55;;;;;;;21.66;65.78;99537.56;5054395;28;20028;-81
2022/08/29 03:46:48;;;;;;;9.80;3.90;;;;;;;21.66;65.36;99526.84;5068012;28;20080;-86
2022/08/29 03:49:14;;;;;;;7.60;3.83;;;;;;;21.84;65.29;99573.09;5068013;28;20063;-90
2022/08/29 03:51:40;;;;;;;16.15;4.53;;;;;;;21.43;65.89;99513.00;5050480;28;20032;-89
2022/08/29 03:54:06;;;;;;;7.25;4.20;;;;;;;21.56;65.95;99534.59;5068367;28;20553;-93
2022/08/29 03:56:33;;;;;;;8.50;4.50;;;;;;;21.83;66.30;99579.44;5055005;28;20024;-95
2022/08/29 03:58:59;;;;;;;6.13;4.32;;;;;;;21.80;66.20;99593.91;5067947;28;20825;-88
2022/08/29 04:01:27;;;;;;;10.90;3.92;;;;;;;21.41;66.06;99519.41;5067522;28;20079;-87
2022/08/29 04:03:56;;;;;;;9.10;4.03;;;;;;;21.62;65.63;99565.56;5067294;28;20045;-91
2022/08/29 04:06:23;;;;;;;6.95;4.35;;;;;;;21.43;65.01;99541.66;5067539;28;20037;-86
2022/08/29 04:08:52;;;;;;;7.60;4.53;;;;;;;21.42;65.02;99547.97;5066349;28;20082;-85
2022/08/29 04:11:18;;;;;;;9.63;4.38;;;;;;;21.43;65.48;99563.13;5067826;28;20035;-86
2022/08/29 04:13:45;;;;;;;10.40;5.90;;;;;;;21.18;66.94;99563.75;5067055;28;20118;-83
2022/08/29 04:16:16;;;;;;;5.10;3.90;;;;;;;21.10;67.36;99559.75;5066918;28;21834;-84
2022/08/29 04:18:44;;;;;;;7.78;4.05;;;;;;;21.15;67.66;99555.91;5067852;28;20033;-85
2022/08/29 04:21:11;;;;;;;6.50;4.45;;;;;;;20.98;67.70;99514.06;5065982;28;20032;-85
2022/08/29 04:23:38;;;;;;;6.25;3.42;;;;;;;20.86;67.36;99524.56;5067102;28;20037;-86
2022/08/29 04:26:04;;;;;;;5.95;4.07;;;;;;;20.91;68.56;99570.72;5067162;28;20502;-87
2022/08/29 04:28:30;;;;;;;11.38;4.18;;;;;;;20.39;69.39;99596.03;5067034;28;20028;-85
2022/08/29 04:30:56;;;;;;;4.90;3.38;;;;;;;20.25;70.08;99552.25;5066409;28;20037;-87
2022/08/29 04:33:31;;;;;;;8.90;4.07;;;;;;;20.78;68.23;99542.06;5066127;28;20399;-85
2022/08/29 04:35:56;;;;;;;7.78;4.43;;;;;;;21.10;66.59;99569.59;5066765;28;20040;-86
2022/08/29 04:38:22;;;;;;;6.47;3.33;;;;;;;21.29;65.66;99562.16;5049191;28;20518;-85
2022/08/29 04:40:47;;;;;;;9.93;4.00;;;;;;;21.56;63.73;99598.13;5066962;28;20080;-84
2022/08/29 04:43:13;;;;;;;5.07;4.15;;;;;;;21.57;63.23;99568.53;5066886;28;20477;-87
2022/08/29 04:45:41;;;;;;;7.38;4.05;;;;;;;21.67;62.04;99551.84;5065555;28;20037;-84
2022/08/29 04:48:10;;;;;;;7.18;4.05;;;;;;;21.93;60.81;99550.19;5066479;28;20575;-84
2022/08/29 04:50:37;;;;;;;4.07;2.60;;;;;;;22.08;58.65;99526.84;5066305;28;20042;-86
2022/08/29 04:53:03;;;;;;;5.35;2.72;;;;;;;22.30;57.41;99559.41;5066697;28;20028;-85
2022/08/29 04:55:29;;;;;;;4.68;2.90;;;;;;;22.42;56.99;99522.81;5066960;28;20036;-85
2022/08/29 04:57:55;;;;;;;7.38;3.60;;;;;;;22.77;54.92;99553.66;5066957;28;20476;-84
2022/08/29 05:00:25;;;;;;;6.35;3.17;;;;;;;23.16;54.44;99605.72;5067620;28;20036;-90
2022/08/29 05:03:08;;;;;;;5.30;3.60;;;;;;;22.85;55.00;99549.47;5049365;28;20452;-90
2022/08/29 05:05:33;;;;;;;5.85;2.75;;;;;;;23.29;56.84;99627.25;5049599;28;20113;-89
2022/08/29 05:07:59;;;;;;;8.60;2.85;;;;;;;22.91;58.51;99561.66;5049953;28;20029;-87
2022/08/29 05:10:25;;;;;;;5.82;3.67;;;;;;;23.00;58.87;99579.84;5049070;28;20043;-89
2022/08/29 05:12:50;;;;;;;10.48;3.70;;;;;;;22.76;60.79;99555.47;5066587;28;20564;-87
2022/08/29 05:15:17;;;;;;;13.02;5.47;;;;;;;22.97;60.83;99596.19;5009630;28;20056;-87
2022/08/29 05:17:43;;;;;;;19.65;5.70;;;;;;;22.83;61.23;99547.84;4993949;28;20031;-88
2022/08/29 05:20:10;;;;;;;11.55;4.43;;;;;;;23.01;61.43;99559.19;5000738;28;20113;-86
2022/08/29 05:22:37;;;;;;;17.25;4.60;;;;;;;23.12;62.27;99585.38;4986751;28;20551;-86
2022/08/29 05:25:03;;;;;;;13.38;6.30;;;;;;;23.29;61.79;99622.72;4987283;28;20961;-86
2022/08/29 05:27:29;;;;;;;7.72;5.03;;;;;;;23.37;61.44;99615.00;4986318;28;20049;-87
2022/08/29 05:29:55;;;;;;;9.30;3.97;;;;;;;23.55;60.32;99594.00;4987024;28;20125;-88
2022/08/29 05:32:23;;;;;;;12.90;6.70;;;;;;;23.69;60.63;99617.25;4986544;28;20088;-87
2022/08/29 05:34:49;;;;;;;27.38;5.40;;;;;;;23.92;58.73;99586.00;4985864;28;20109;-85
2022/08/29 05:37:18;;;;;;;17.73;5.05;;;;;;;23.91;59.81;99589.69;4986826;28;20133;-86
2022/08/29 05:39:45;;;;;;;7.47;4.05;;;;;;;24.39;58.56;99621.25;4969403;28;20062;-87
2022/08/29 05:42:11;;;;;;;8.35;4.53;;;;;;;24.49;58.54;99616.03;4986884;28;20027;-85
2022/08/29 05:44:38;;;;;;;10.23;4.40;;;;;;;24.36;57.26;99581.06;4989352;28;20038;-86
2022/08/29 05:47:10;;;;;;;12.57;4.75;;;;;;;24.88;56.04;99629.38;4991062;28;20046;-86
2022/08/29 05:49:38;;;;;;;8.88;5.47;;;;;;;24.53;55.36;99600.47;4990941;28;20038;-87
2022/08/29 05:52:04;;;;;;;7.60;4.35;;;;;;;24.70;54.79;99604.66;4972920;28;20034;-85
2022/08/29 05:54:33;;;;;;;7.30;3.17;;;;;;;24.73;55.23;99605.28;4990719;28;20500;-87
2022/08/29 05:56:59;;;;;;;9.13;4.22;;;;;;;24.91;55.23;99613.81;4991350;28;20034;-86
2022/08/29 05:59:25;;;;;;;7.45;4.35;;;;;;;25.58;54.24;99624.94;4990728;28;20545;-85
2022/08/29 06:01:50;;;;;;;7.03;3.53;;;;;;;26.16;52.72;99671.66;4990664;28;20030;-85
2022/08/29 06:04:17;;;;;;;7.13;4.18;;;;;;;25.88;52.31;99627.91;4990528;28;20486;-86
2022/08/29 06:06:43;;;;;;;4.88;2.97;;;;;;;26.44;51.71;99650.50;4990936;28;20038;-84
2022/08/29 06:09:11;;;;;;;5.95;3.40;;;;;;;26.18;51.01;99622.88;4990752;28;20049;-85
2022/08/29 06:11:36;;;;;;;7.32;3.95;;;;;;;26.62;50.19;99596.72;4990778;28;20038;-85
2022/08/29 06:14:02;;;;;;;7.80;3.65;;;;;;;26.39;51.13;99599.50;4990346;28;20652;-89
2022/08/29 06:16:29;;;;;;;5.85;3.15;;;;;;;26.77;51.61;99606.28;4990282;28;20062;-86
2022/08/29 06:18:55;;;;;;;9.02;4.18;;;;;;;27.12;49.81;99636.75;4990394;28;20038;-86
2022/08/29 06:21:21;;;;;;;7.75;4.05;;;;;;;27.20;49.60;99619.88;4991347;28;20033;-86
2022/08/29 06:23:48;;;;;;;6.88;4.32;;;;;;;27.59;47.30;99663.47;4990681;28;20030;-87
2022/08/29 06:26:15;;;;;;;8.95;4.28;;;;;;;27.77;46.63;99586.00;4990623;28;20034;-87
2022/08/29 06:28:46;;;;;;;7.45;4.22;;;;;;;27.52;46.40;99595.44;4986634;28;20038;-87
2022/08/29 06:31:25;;;;;;;6.28;3.78;;;;;;;27.48;45.14;99580.44;4990694;28;20042;-86
2022/08/29 06:33:52;;;;;;;7.35;3.85;;;;;;;28.15;44.41;99613.44;4990378;28;20042;-87
2022/08/29 06:36:18;;;;;;;10.05;3.42;;;;;;;28.11;45.42;99596.56;4972792;28;20070;-87
2022/08/29 06:38:43;;;;;;;9.20;4.05;;;;;;;28.43;45.68;99587.38;4989785;28;20116;-88
2022/08/29 06:41:12;;;;;;;7.32;3.50;;;;;;;28.33;44.85;99641.59;4988827;28;20073;-86
2022/08/29 06:43:39;;;;;;;6.38;4.03;;;;;;;28.72;43.62;99578.44;4988761;28;20030;-87
2022/08/29 06:46:05;;;;;;;4.50;3.10;;;;;;;29.07;43.92;99609.56;4972763;28;20041;-88
2022/08/29 06:48:31;;;;;;;12.52;4.80;;;;;;;29.25;43.80;99596.97;4990262;28;20038;-87
2022/08/29 06:50:59;;;;;;;9.27;3.40;;;;;;;29.44;42.18;99634.16;4989678;28;20785;-87
2022/08/29 06:53:26;;;;;;;5.28;2.80;;;;;;;28.89;41.51;99620.31;4989088;28;20038;-87
2022/08/29 06:55:51;;;;;;;5.68;3.05;;;;;;;29.03;43.29;99590.00;4989419;28;20034;-86
2022/08/29 06:58:17;;;;;;;5.57;3.15;;;;;;;29.50;41.14;99616.38;4989641;28;20038;-86
2022/08/29 07:00:43;;;;;;;6.13;3.63;;;;;;;29.74;40.69;99628.63;4989638;28;20026;-87
2022/08/29 07:03:09;;;;;;;5.55;2.65;;;;;;;29.99;41.30;99619.81;4988598;28;20590;-86
2022/08/29 07:05:35;;;;;;;6.15;3.35;;;;;;;30.58;39.56;99594.19;4989327;28;20093;-85
2022/08/29 07:08:00;;;;;;;8.25;2.95;;;;;;;31.06;40.55;99637.38;4989392;28;20087;-86
2022/08/29 07:10:26;;;;;;;7.22;3.20;;;;;;;30.41;38.80;99609.47;4989737;28;20034;-87
2022/08/29 07:12:52;;;;;;;8.68;3.00;;;;;;;30.70;39.04;99617.44;4972261;28;20492;-87
2022/08/29 07:15:20;;;;;;;4.78;2.80;;;;;;;31.27;38.33;99644.34;4989820;28;20053;-87
2022/08/29 07:17:46;;;;;;;8.27;3.58;;;;;;;31.06;38.24;99620.16;4971937;28;20091;-86
2022/08/29 07:20:12;;;;;;;6.78;2.90;;;;;;;31.23;38.08;99659.28;4971845;28;20123;-86
2022/08/29 07:22:38;;;;;;;8.27;3.53;;;;;;;30.92;37.17;99632.44;4989717;28;20062;-88
2022/08/29 07:25:04;;;;;;;6.43;2.97;;;;;;;31.56;35.61;99657.72;4989414;28;20412;-87
2022/08/29 07:27:30;;;;;;;5.15;2.25;;;;;;;31.23;35.81;99602.09;4989292;28;20137;-86
2022/08/29 07:29:55;;;;;;;7.00;3.42;;;;;;;31.61;34.40;99634.59;4989510;28;20143;-87
2022/08/29 07:32:21;;;;;;;5.80;3.10;;;;;;;31.75;35.51;99601.28;4989289;28;20037;-85
2022/08/29 07:34:46;;;;;;;6.70;4.10;;;;;;;31.91;34.58;99582.25;4988794;28;20460;-85
2022/08/29 07:37:12;;;;;;;6.93;3.65;;;;;;;32.27;33.78;99587.53;4989169;28;20121;-85
2022/08/29 07:39:38;;;;;;;6.45;4.63;;;;;;;32.47;33.78;99636.34;4989415;28;20034;-86
2022/08/29 07:42:04;;;;;;;5.68;4.32;;;;;;;32.29;33.91;99599.13;4990134;28;20041;-87
2022/08/29 07:44:31;;;;;;;6.60;4.13;;;;;;;32.80;33.12;99628.28;4971954;28;20085;-86
2022/08/29 07:46:58;;;;;;;5.25;3.50;;;;;;;31.90;34.31;99596.91;4988689;28;20488;-87
2022/08/29 07:49:25;;;;;;;10.20;3.35;;;;;;;32.19;35.15;99592.09;4971659;28;20882;-85
2022/08/29 07:51:52;;;;;;;5.75;3.05;;;;;;;32.92;36.17;99642.44;4988421;28;20026;-85
2022/08/29 07:54:19;;;;;;;5.63;3.50;;;;;;;33.01;35.18;99593.16;4987673;28;20105;-86
2022/08/29 07:56:48;;;;;;;6.43;3.95;;;;;;;32.40;34.54;99628.00;4988304;28;20038;-88
2022/08/29 07:59:14;;;;;;;10.77;4.35;;;;;;;31.80;34.91;99577.09;4989248;28;20031;-85
2022/08/29 08:01:40;;;;;;;6.82;3.92;;;;;;;31.55;34.63;99593.31;4989353;28;20033;-88
2022/08/29 08:04:06;;;;;;;9.70;2.47;;;;;;;31.97;34.14;99588.09;4988542;28;20054;-85
2022/08/29 08:06:33;;;;;;;8.23;3.30;;;;;;;32.36;33.77;99614.84;4987761;28;20034;-86
2022/08/29 08:08:58;;;;;;;6.63;3.78;;;;;;;31.93;34.24;99568.44;4987800;28;20030;-84
2022/08/29 08:11:25;;;;;;;3.90;2.45;;;;;;;32.12;34.58;99611.03;4988895;28;20485;-88
2022/08/29 08:13:52;;;;;;;4.38;2.90;;;;;;;32.12;34.05;99559.19;4987196;28;20034;-85
2022/08/29 08:16:20;;;;;;;5.13;2.25;;;;;;;32.52;35.67;99578.53;4988257;28;20030;-85
2022/08/29 08:18:46;;;;;;;7.00;2.90;;;;;;;32.62;36.03;99588.28;4987907;28;20149;-84
2022/08/29 08:21:12;;;;;;;4.68;3.35;;;;;;;32.60;33.74;99594.94;4989001;28;20034;-85
2022/08/29 08:23:39;;;;;;;4.95;3.25;;;;;;;32.39;36.27;99612.63;4988292;28;20036;-85
2022/08/29 08:26:05;;;;;;;6.25;3.20;;;;;;;32.72;34.20;99606.41;4988419;28;20496;-85
2022/08/29 08:28:31;;;;;;;8.50;2.88;;;;;;;32.65;32.18;99595.31;4987055;28;20034;-86
2022/08/29 08:30:58;;;;;;;6.03;3.05;;;;;;;32.62;33.33;99560.13;4987946;28;20497;-85
2022/08/29 08:33:24;;;;;;;6.32;2.58;;;;;;;33.36;31.02;99573.84;4987845;28;20042;-86
2022/08/29 08:35:51;;;;;;;5.03;3.47;;;;;;;32.58;33.49;99584.19;4988024;28;20034;-86
2022/08/29 08:38:17;;;;;;;4.72;2.35;;;;;;;32.60;32.99;99532.16;4987654;28;20061;-88
2022/08/29 08:41:13;;;;;;;10.77;6.57;;;;;;;32.99;36.62;99565.13;4987651;28;20061;-85
2022/08/29 08:44:06;;;;;;;9.43;8.52;;;;;;;33.24;32.76;99599.81;4970585;28;20092;-85
2022/08/29 08:46:43;;;;;;;8.88;6.70;;;;;;;32.81;34.45;99587.16;4987869;28;20030;-84
2022/08/29 08:49:33;;;;;;;8.27;4.93;;;;;;;32.73;34.77;99556.25;4988217;28;20093;-84
2022/08/29 08:52:05;;;;;;;8.70;3.53;;;;;;;33.19;33.24;99552.00;4986493;28;20031;-85
2022/08/29 08:54:40;;;;;;;3.50;2.50;;;;;;;33.76;31.26;99560.28;4987124;28;20088;-85
2022/08/29 08:57:08;;;;;;;8.02;3.92;;;;;;;33.86;30.46;99559.03;4984394;28;20042;-85
2022/08/29 08:59:42;;;;;;;6.53;3.83;;;;;;;33.67;31.33;99582.13;4970598;28;20744;-85
2022/08/29 09:02:27;;;;;;;4.63;2.83;;;;;;;33.23;34.14;99612.63;4987566;28;20428;-85
2022/08/29 09:05:25;;;;;;;8.40;4.03;;;;;;;33.22;34.01;99583.59;4987358;28;20050;-85
2022/08/29 09:08:10;;;;;;;6.47;2.58;;;;;;;33.47;34.43;99546.13;4987651;28;20080;-87
2022/08/29 09:10:53;;;;;;;8.90;6.38;;;;;;;33.72;35.78;99538.75;4970167;28;20034;-86
2022/08/29 09:13:27;;;;;;;65.53;42.40;;;;;;;34.39;35.06;99603.09;4984207;28;20453;-85
2022/08/29 09:15:57;;;;;;;771.70;429.88;;;;;;;34.40;32.95;99514.47;4986712;28;20040;-86
2022/08/29 09:18:41;;;;;;;72.70;46.97;;;;;;;33.85;31.96;99537.31;4973978;28;20038;-85
2022/08/29 09:21:19;;;;;;;10.73;7.22;;;;;;;33.57;31.89;99542.34;4971005;28;20940;-85
2022/08/29 09:24:01;;;;;;;555.70;255.98;;;;;;;33.57;32.19;99539.59;4983782;28;20193;-85
2022/08/29 09:26:28;;;;;;;74.95;45.60;;;;;;;33.50;31.46;99521.16;4987378;28;20030;-86
2022/08/29 09:28:54;;;;;;;1418.95;798.47;;;;;;;34.20;32.40;99592.53;4986907;28;20539;-86
2022/08/29 09:31:31;;;;;;;95.25;57.63;;;;;;;33.98;32.38;99555.91;4986939;28;20066;-85
2022/08/29 09:34:07;;;;;;;5.50;3.22;;;;;;;33.44;32.53;99554.66;4988875;28;20026;-86
2022/08/29 09:36:36;;;;;;;393.20;191.32;;;;;;;33.82;32.48;99573.25;4987400;28;20038;-86
2022/08/29 09:39:19;;;;;;;591.75;420.00;;;;;;;34.08;30.72;99529.19;4986863;28;20165;-88
2022/08/29 09:41:52;;;;;;;1377.65;763.90;;;;;;;34.17;31.13;99539.03;4986208;28;20038;-89
2022/08/29 09:44:23;;;;;;;101.20;62.53;;;;;;;34.29;30.20;99549.59;4986953;28;20815;-86
2022/08/29 09:47:02;;;;;;;14.48;10.23;;;;;;;33.86;31.11;99508.91;4986350;28;20042;-86
2022/08/29 09:49:28;;;;;;;683.08;574.67;;;;;;;34.36;33.84;99525.97;4970021;28;20077;-89
2022/08/29 09:52:11;;;;;;;413.55;274.27;;;;;;;34.54;32.58;99523.78;5002833;28;20058;-88
2022/08/29 09:54:37;;;;;;;56.65;40.28;;;;;;;34.08;33.76;99513.59;4987840;28;20038;-86
2022/08/29 09:57:23;;;;;;;8.95;5.45;;;;;;;34.12;31.57;99513.25;4987428;28;20061;-86
2022/08/29 10:00:12;;;;;;;7.03;4.95;;;;;;;34.53;32.75;99554.06;4987094;28;20034;-84
2022/08/29 10:02:41;;;;;;;7.70;4.00;;;;;;;34.22;31.78;99558.50;4986915;28;20409;-86
2022/08/29 10:05:11;;;;;;;4.00;2.50;;;;;;;33.59;30.14;99538.41;4986705;28;20505;-86
2022/08/29 10:07:51;;;;;;;4.38;2.53;;;;;;;32.96;33.69;99519.03;4986935;28;20034;-86
2022/08/29 10:10:19;;;;;;;8.07;3.58;;;;;;;32.97;32.65;99479.78;4986906;28;20069;-85
2022/08/29 10:13:00;;;;;;;4.47;2.50;;;;;;;33.07;33.02;99515.09;4986989;28;20121;-85
2022/08/29 10:15:32;;;;;;;4.03;2.50;;;;;;;32.80;33.42;99483.56;4986544;28;20034;-84
2022/08/29 10:18:26;;;;;;;5.18;2.88;;;;;;;33.29;32.36;99472.56;4986534;28;20045;-84
2022/08/29 10:21:02;;;;;;;5.35;3.50;;;;;;;33.43;31.97;99481.03;4987132;28;20084;-87
2022/08/29 10:23:58;;;;;;;5.47;3.47;;;;;;;33.77;30.19;99490.84;4986791;28;20632;-85
2022/08/29 10:26:36;;;;;;;4.55;2.95;;;;;;;34.13;29.90;99540.44;4986437;28;20544;-86
2022/08/29 10:29:35;;;;;;;4.60;2.95;;;;;;;33.64;30.59;99510.53;4986718;28;20030;-85
2022/08/29 10:32:03;;;;;;;5.43;2.78;;;;;;;33.99;31.18;99530.25;4989566;28;20040;-86
2022/08/29 10:34:43;;;;;;;3.60;2.83;;;;;;;33.98;29.78;99460.16;4990364;28;20777;-86
2022/08/29 10:37:49;;;;;;;5.35;3.17;;;;;;;33.93;35.01;99484.47;4990077;28;20057;-85
2022/08/29 10:40:27;;;;;;;9.15;2.67;;;;;;;33.99;33.83;99497.41;4960488;28;20471;-85
2022/08/29 10:43:15;;;;;;;5.90;3.40;;;;;;;34.22;30.85;99486.50;4990168;28;20084;-85
2022/08/29 10:46:09;;;;;;;7.10;3.78;;;;;;;34.07;29.73;99483.69;4990103;28;20061;-85
2022/08/29 10:48:41;;;;;;;7.35;3.85;;;;;;;34.39;31.07;99466.22;4972534;28;20038;-86
2022/08/29 10:51:35;;;;;;;5.88;4.22;;;;;;;34.30;29.43;99439.94;4990508;28;20029;-85
2022/08/29 10:54:05;;;;;;;;;;;;;;;34.74;30.16;99501.34;4972866;28;20036;-87
2022/08/29 10:56:38;;;;;;;9.18;3.45;;;;;;;34.26;28.95;99449.53;4990428;28;19909;-86
2022/08/29 10:59:25;;;;;;;5.45;3.40;;;;;;;34.67;28.26;99503.13;4990402;28;20065;-87
2022/08/29 11:02:03;;;;;;;8.35;3.38;;;;;;;34.24;27.81;99444.25;4990522;28;20045;-86
2022/08/29 11:04:36;;;;;;;3.53;2.58;;;;;;;34.26;29.05;99430.38;4972570;28;20046;-85
2022/08/29 11:07:21;;;;;;;4.93;2.63;;;;;;;34.74;28.71;99474.81;4989826;28;20164;-85
2022/08/29 11:09:52;;;;;;;6.18;2.95;;;;;;;34.42;28.44;99463.13;4990259;28;20508;-86
2022/08/29 11:12:29;;;;;;;8.30;3.33;;;;;;;34.04;28.75;99432.91;4991126;28;20073;-85
2022/08/29 11:15:26;;;;;;;4.03;2.63;;;;;;;34.15;28.56;99415.22;4991484;28;20088;-86
2022/08/29 11:18:23;;;;;;;4.38;2.40;;;;;;;35.03;28.53;99475.94;4972601;28;20100;-87
2022/08/29 11:21:02;;;;;;;4.63;2.67;;;;;;;34.82;28.11;99408.19;4986794;28;20042;-86
2022/08/29 11:23:39;;;;;;;4.38;2.42;;;;;;;34.76;28.54;99418.00;4987100;28;20042;-86
2022/08/29 11:26:30;;;;;;;3.63;2.55;;;;;;;34.67;28.88;99394.44;4983415;28;20018;-86
2022/08/29 11:29:38;;;;;;;3.33;2.45;;;;;;;35.01;28.20;99458.84;4989216;28;20045;-85
2022/08/29 11:32:09;;;;;;;3.70;2.25;;;;;;;34.61;30.08;99453.53;4987813;28;20424;-85
2022/08/29 11:34:58;;;;;;;4.40;2.88;;;;;;;34.79;28.63;99466.09;4989431;28;20035;-86
2022/08/29 11:37:51;;;;;;;4.80;2.28;;;;;;;34.64;28.75;99437.78;4989217;28;20038;-85
2022/08/29 11:40:38;;;;;;;4.43;2.70;;;;;;;34.87;28.25;99449.56;4989937;28;20034;-85
2022/08/29 11:43:07;;;;;;;3.47;2.42;;;;;;;34.84;28.26;99424.44;4989272;28;21132;-85
2022/08/29 11:45:37;;;;;;;5.70;2.55;;;;;;;35.04;29.07;99444.75;4989016;28;20053;-84
2022/08/29 11:48:15;;;;;;;3.80;2.72;;;;;;;34.99;27.59;99441.75;5006303;28;20033;-85
2022/08/29 11:50:41;;;;;;;7.25;2.50;;;;;;;34.43;28.31;99379.09;4989734;28;20035;-87